createdAt,value
2018-06-24T00:01:20.597Z,11.46
2018-06-24T00:03:49.198Z,11.50
2018-06-24T00:06:17.748Z,11.53
2018-06-24T00:08:46.333Z,11.64
2018-06-24T00:11:14.871Z,11.42
2018-06-24T00:13:43.473Z,11.37
2018-06-24T00:16:12.048Z,11.33
2018-06-24T00:18:40.625Z,11.31
2018-06-24T00:21:09.414Z,11.13
2018-06-24T00:23:38.003Z,11.17
2018-06-24T00:26:06.545Z,11.05
2018-06-24T00:28:35.129Z,11.16
2018-06-24T00:31:03.677Z,11.28
2018-06-24T00:33:32.241Z,11.40
2018-06-24T00:36:00.773Z,11.31
2018-06-24T00:38:29.379Z,11.47
2018-06-24T00:40:58.783Z,11.31
2018-06-24T00:43:27.309Z,11.11
2018-06-24T00:45:55.926Z,11.18
2018-06-24T00:48:24.477Z,11.21
2018-06-24T00:50:53.077Z,11.19
2018-06-24T00:53:21.883Z,11.24
2018-06-24T00:55:50.470Z,11.15
2018-06-24T00:58:19.014Z,11.09
2018-06-24T01:00:47.598Z,11.06
2018-06-24T01:03:16.143Z,11.15
2018-06-24T01:05:44.741Z,11.02
2018-06-24T01:08:13.286Z,11.04
2018-06-24T01:10:41.861Z,10.87
2018-06-24T01:13:10.418Z,10.79
2018-06-24T01:15:39.005Z,10.72
2018-06-24T01:18:13.829Z,10.82
2018-06-24T01:20:42.469Z,10.83
2018-06-24T01:23:11.009Z,10.87
2018-06-24T01:25:39.580Z,10.88
2018-06-24T01:28:08.253Z,10.82
2018-06-24T01:30:36.833Z,10.70
2018-06-24T01:33:05.399Z,10.60
2018-06-24T01:35:33.973Z,10.79
2018-06-24T01:38:02.565Z,10.77
2018-06-24T01:40:31.139Z,10.78
2018-06-24T01:42:59.692Z,10.88
2018-06-24T01:45:28.247Z,10.81
2018-06-24T01:47:56.779Z,10.85
2018-06-24T01:50:25.384Z,10.83
2018-06-24T01:52:53.935Z,10.82
2018-06-24T01:55:22.490Z,10.61
2018-06-24T01:57:51.055Z,10.30
2018-06-24T02:00:19.639Z,10.48
2018-06-24T02:02:48.168Z,10.46
2018-06-24T02:05:16.801Z,10.49
2018-06-24T02:07:45.405Z,10.59
2018-06-24T02:10:13.973Z,10.72
2018-06-24T02:12:42.684Z,10.68
2018-06-24T02:15:11.281Z,10.80
2018-06-24T02:17:39.819Z,10.86
2018-06-24T02:20:08.409Z,10.99
2018-06-24T02:22:36.945Z,10.89
2018-06-24T02:25:05.514Z,10.67
2018-06-24T02:27:34.049Z,10.66
2018-06-24T02:30:02.624Z,10.67
2018-06-24T02:32:31.154Z,10.76
2018-06-24T02:34:59.714Z,10.79
2018-06-24T02:37:28.250Z,10.83
2018-06-24T02:39:56.811Z,10.84
2018-06-24T02:42:25.349Z,10.76
2018-06-24T02:44:53.877Z,10.76
2018-06-24T02:47:22.460Z,10.77
2018-06-24T02:49:50.988Z,10.89
2018-06-24T02:52:19.558Z,10.92
2018-06-24T02:54:48.129Z,10.79
2018-06-24T02:57:16.718Z,10.77
2018-06-24T02:59:45.249Z,10.93
2018-06-24T03:02:13.810Z,10.98
2018-06-24T03:04:42.369Z,10.93
2018-06-24T03:07:10.937Z,10.92
2018-06-24T03:09:39.461Z,10.85
2018-06-24T03:12:08.016Z,10.90
2018-06-24T03:14:36.543Z,10.95
2018-06-24T03:17:05.129Z,10.83
2018-06-24T03:19:33.684Z,10.88
2018-06-24T03:22:02.241Z,10.91
2018-06-24T03:24:30.791Z,10.88
2018-06-24T03:26:59.347Z,10.96
2018-06-24T03:29:27.892Z,10.96
2018-06-24T03:31:56.452Z,10.97
2018-06-24T03:34:24.993Z,11.00
2018-06-24T03:36:53.573Z,11.04
2018-06-24T03:39:22.464Z,11.02
2018-06-24T03:41:51.053Z,11.03
2018-06-24T03:44:19.618Z,11.02
2018-06-24T03:46:48.222Z,11.14
2018-06-24T03:49:16.770Z,11.13
2018-06-24T03:51:45.329Z,11.23
2018-06-24T03:54:13.853Z,11.19
2018-06-24T03:56:42.411Z,11.25
2018-06-24T03:59:10.938Z,11.18
2018-06-24T04:01:39.506Z,11.27
2018-06-24T04:04:08.073Z,11.08
2018-06-24T04:06:36.645Z,11.22
2018-06-24T04:09:07.066Z,11.29
2018-06-24T04:11:35.687Z,11.28
2018-06-24T04:14:04.257Z,11.37
2018-06-24T04:16:32.835Z,11.44
2018-06-24T04:19:01.362Z,11.44
2018-06-24T04:21:29.933Z,11.31
2018-06-24T04:23:58.478Z,11.48
2018-06-24T04:26:27.143Z,11.37
2018-06-24T04:28:55.670Z,11.62
2018-06-24T04:31:24.229Z,11.65
2018-06-24T04:33:52.820Z,11.69
2018-06-24T04:36:21.352Z,11.59
2018-06-24T04:38:49.906Z,11.62
2018-06-24T04:41:18.481Z,11.54
2018-06-24T04:43:47.063Z,11.71
2018-06-24T04:46:15.854Z,11.81
2018-06-24T04:48:44.438Z,11.92
2018-06-24T04:51:12.992Z,11.90
2018-06-24T04:53:41.565Z,11.99
2018-06-24T04:56:10.093Z,12.00
2018-06-24T04:58:38.681Z,11.86
2018-06-24T05:01:07.269Z,11.87
2018-06-24T05:03:35.857Z,11.98
2018-06-24T05:06:04.497Z,12.10
2018-06-24T05:08:33.058Z,12.12
2018-06-24T05:11:01.583Z,11.91
2018-06-24T05:13:30.160Z,12.20
2018-06-24T05:15:58.756Z,12.04
2018-06-24T05:18:27.312Z,12.19
2018-06-24T05:20:55.866Z,12.25
2018-06-24T05:23:24.433Z,12.25
2018-06-24T05:25:52.961Z,12.28
2018-06-24T05:28:21.551Z,12.34
2018-06-24T05:30:50.116Z,12.49
2018-06-24T05:33:18.687Z,12.57
2018-06-24T05:35:47.246Z,12.66
2018-06-24T05:38:15.824Z,12.84
2018-06-24T05:40:44.390Z,12.93
2018-06-24T05:43:13.053Z,13.03
2018-06-24T05:45:41.594Z,13.10
2018-06-24T05:48:10.169Z,12.86
2018-06-24T05:50:38.705Z,12.65
2018-06-24T05:53:07.303Z,12.96
2018-06-24T05:55:35.841Z,12.91
2018-06-24T05:58:04.721Z,13.02
2018-06-24T06:00:33.322Z,13.24
2018-06-24T06:03:01.920Z,13.14
2018-06-24T06:05:30.494Z,13.30
2018-06-24T06:07:59.071Z,13.19
2018-06-24T06:10:27.728Z,13.25
2018-06-24T06:12:56.185Z,13.18
2018-06-24T06:15:24.736Z,13.22
2018-06-24T06:17:53.410Z,13.48
2018-06-24T06:20:21.985Z,13.53
2018-06-24T06:22:50.514Z,13.38
2018-06-24T06:25:19.109Z,13.57
2018-06-24T06:27:47.644Z,13.44
2018-06-24T06:30:16.538Z,13.51
2018-06-24T06:32:45.775Z,13.46
2018-06-24T06:35:14.515Z,13.42
2018-06-24T06:37:43.102Z,13.45
2018-06-24T06:40:11.673Z,13.54
2018-06-24T06:42:40.196Z,13.60
2018-06-24T06:45:08.835Z,13.72
2018-06-24T06:47:37.343Z,13.70
2018-06-24T06:50:06.674Z,13.78
2018-06-24T06:52:35.240Z,13.85
2018-06-24T06:55:03.881Z,14.00
2018-06-24T06:57:32.421Z,14.05
2018-06-24T07:00:01.070Z,14.20
2018-06-24T07:02:29.620Z,14.41
2018-06-24T07:05:03.350Z,14.56
2018-06-24T07:07:32.222Z,14.64
2018-06-24T07:10:00.792Z,14.64
2018-06-24T07:12:29.369Z,14.79
2018-06-24T07:14:57.921Z,14.90
2018-06-24T07:17:26.793Z,14.96
2018-06-24T07:19:55.385Z,15.05
2018-06-24T07:22:23.920Z,15.06
2018-06-24T07:24:53.282Z,15.19
2018-06-24T07:27:21.857Z,15.34
2018-06-24T07:29:50.482Z,15.42
2018-06-24T07:32:19.422Z,15.47
2018-06-24T07:34:47.980Z,15.57
2018-06-24T07:37:16.536Z,15.71
2018-06-24T07:39:45.123Z,15.78
2018-06-24T07:42:13.700Z,15.95
2018-06-24T07:44:42.294Z,16.10
2018-06-24T07:47:10.854Z,16.07
2018-06-24T07:49:39.420Z,16.18
2018-06-24T07:52:07.941Z,16.40
2018-06-24T07:54:41.212Z,16.39
2018-06-24T07:57:14.036Z,16.52
2018-06-24T07:59:42.774Z,16.68
2018-06-24T08:02:13.891Z,16.99
2018-06-24T08:04:44.322Z,16.98
2018-06-24T08:07:14.739Z,17.36
2018-06-24T08:09:46.789Z,17.76
2018-06-24T08:12:18.726Z,17.72
2018-06-24T08:14:49.582Z,17.94
2018-06-24T08:17:25.222Z,17.76
2018-06-24T08:19:58.592Z,17.69
2018-06-24T08:22:28.642Z,18.10
2018-06-24T08:25:00.049Z,18.33
2018-06-24T08:27:32.322Z,18.36
2018-06-24T08:30:06.238Z,18.50
2018-06-24T08:32:38.126Z,18.10
2018-06-24T08:35:10.796Z,18.14
2018-06-24T08:37:39.629Z,18.26
2018-06-24T08:40:09.883Z,18.25
2018-06-24T08:42:40.159Z,18.21
2018-06-24T08:45:11.770Z,18.32
2018-06-24T08:47:41.388Z,18.27
2018-06-24T08:50:10.647Z,18.38
2018-06-24T08:52:41.165Z,18.39
2018-06-24T08:55:10.890Z,18.46
2018-06-24T08:57:42.560Z,18.31
2018-06-24T09:00:12.630Z,18.64
2018-06-24T09:02:41.341Z,18.60
2018-06-24T09:05:11.359Z,18.60
2018-06-24T09:07:40.237Z,19.10
2018-06-24T09:10:09.078Z,19.28
2018-06-24T09:12:37.806Z,19.07
2018-06-24T09:15:08.031Z,19.29
2018-06-24T09:17:40.035Z,19.04
2018-06-24T09:20:11.173Z,19.60
2018-06-24T09:22:41.132Z,19.16
2018-06-24T09:25:10.749Z,19.22
2018-06-24T09:27:40.131Z,19.35
2018-06-24T09:30:09.782Z,19.45
2018-06-24T09:32:38.477Z,19.84
2018-06-24T09:35:08.333Z,20.05
2018-06-24T09:37:38.248Z,20.11
2018-06-24T09:40:10.534Z,19.61
2018-06-24T09:42:40.722Z,19.50
2018-06-24T09:45:10.465Z,19.48
2018-06-24T09:47:42.689Z,19.65
2018-06-24T09:50:12.537Z,20.22
2018-06-24T09:52:41.566Z,19.89
2018-06-24T09:55:17.090Z,19.93
2018-06-24T09:57:47.809Z,19.49
2018-06-24T10:00:24.661Z,20.07
2018-06-24T10:02:54.980Z,20.31
2018-06-24T10:05:26.015Z,20.26
2018-06-24T10:07:57.561Z,20.05
2018-06-24T10:10:37.086Z,19.48
2018-06-24T10:13:06.802Z,19.71
2018-06-24T10:15:36.996Z,19.48
2018-06-24T10:18:06.413Z,19.10
2018-06-24T10:20:35.397Z,19.26
2018-06-24T10:23:04.305Z,19.22
2018-06-24T10:25:35.238Z,19.09
2018-06-24T10:28:06.153Z,19.23
2018-06-24T10:30:36.567Z,19.67
2018-06-24T10:33:05.874Z,19.54
2018-06-24T10:35:36.323Z,19.67
2018-06-24T10:38:05.134Z,19.56
2018-06-24T10:40:38.849Z,19.43
2018-06-24T10:43:09.626Z,19.83
2018-06-24T10:45:41.365Z,19.95
2018-06-24T10:48:15.977Z,19.79
2018-06-24T10:50:45.534Z,19.77
2018-06-24T10:53:14.437Z,20.02
2018-06-24T10:55:43.818Z,19.94
2018-06-24T10:58:13.928Z,19.54
2018-06-24T11:00:42.572Z,19.81
2018-06-24T11:03:13.070Z,20.00
2018-06-24T11:05:49.316Z,19.91
2018-06-24T11:08:25.037Z,19.90
2018-06-24T11:10:55.308Z,19.60
2018-06-24T11:13:28.756Z,19.56
2018-06-24T11:16:03.399Z,19.96
2018-06-24T11:18:33.284Z,20.05
2018-06-24T11:21:06.678Z,20.05
2018-06-24T11:23:37.261Z,19.87
2018-06-24T11:26:06.774Z,19.62
2018-06-24T11:28:37.131Z,19.99
2018-06-24T11:31:08.942Z,19.89
2018-06-24T11:33:40.127Z,20.28
2018-06-24T11:36:10.489Z,20.66
2018-06-24T11:38:42.398Z,20.74
2018-06-24T11:41:12.567Z,20.82
2018-06-24T11:43:47.256Z,20.85
2018-06-24T11:46:18.061Z,21.29
2018-06-24T11:48:46.618Z,21.19
2018-06-24T11:51:18.147Z,21.17
2018-06-24T11:53:49.497Z,21.21
2018-06-24T11:56:19.447Z,21.51
2018-06-24T11:58:48.556Z,21.68
2018-06-24T12:01:22.766Z,21.51
2018-06-24T12:03:58.426Z,21.47
2018-06-24T12:06:30.658Z,21.73
2018-06-24T12:09:01.029Z,21.56
2018-06-24T12:11:34.633Z,21.39
2018-06-24T12:14:03.561Z,21.93
2018-06-24T12:16:37.715Z,22.00
2018-06-24T12:19:08.057Z,22.08
2018-06-24T12:21:39.354Z,22.30
2018-06-24T12:24:10.219Z,21.46
2018-06-24T12:26:44.134Z,21.62
2018-06-24T12:29:20.642Z,22.22
2018-06-24T12:31:58.889Z,21.81
2018-06-24T12:34:33.496Z,21.88
2018-06-24T12:37:08.139Z,21.67
2018-06-24T12:39:36.996Z,21.46
2018-06-24T12:42:05.537Z,20.70
2018-06-24T12:44:34.089Z,21.13
2018-06-24T12:47:02.618Z,21.38
2018-06-24T12:49:37.943Z,21.62
2018-06-24T12:52:06.974Z,21.68
2018-06-24T12:54:35.547Z,21.35
2018-06-24T12:57:04.165Z,21.48
2018-06-24T12:59:32.919Z,21.77
2018-06-24T13:02:01.310Z,22.08
2018-06-24T13:04:29.903Z,21.81
2018-06-24T13:06:58.455Z,21.87
2018-06-24T13:09:27.504Z,21.63
2018-06-24T13:11:56.062Z,21.76
2018-06-24T13:14:24.646Z,21.74
2018-06-24T13:16:53.199Z,22.12
2018-06-24T13:19:22.085Z,22.17
2018-06-24T13:21:50.602Z,21.96
2018-06-24T13:24:19.190Z,22.03
2018-06-24T13:26:47.834Z,22.15
2018-06-24T13:29:16.414Z,21.95
2018-06-24T13:31:44.973Z,21.96
2018-06-24T13:36:41.022Z,21.76
2018-06-24T13:39:10.837Z,21.81
2018-06-24T13:44:07.338Z,21.93
2018-06-24T13:46:35.963Z,22.27
2018-06-24T13:49:04.537Z,22.47
2018-06-24T13:51:33.094Z,22.24
2018-06-24T13:54:01.618Z,22.24
2018-06-24T13:56:30.199Z,21.77
2018-06-24T13:58:58.735Z,22.24
2018-06-24T14:01:27.339Z,22.12
2018-06-24T14:03:56.097Z,22.25
2018-06-24T14:06:24.657Z,22.62
2018-06-24T14:08:53.184Z,21.94
2018-06-24T14:11:21.729Z,21.94
2018-06-24T14:13:50.273Z,22.30
2018-06-24T14:16:18.840Z,22.30
2018-06-24T14:18:47.379Z,22.81
2018-06-24T14:21:15.935Z,22.66
2018-06-24T14:23:44.455Z,22.73
2018-06-24T14:26:13.086Z,23.31
2018-06-24T14:28:41.624Z,22.84
2018-06-24T14:31:11.809Z,22.28
2018-06-24T14:33:40.902Z,22.50
2018-06-24T14:36:09.519Z,22.57
2018-06-24T14:38:40.019Z,22.56
2018-06-24T14:41:08.651Z,22.58
2018-06-24T14:43:37.176Z,22.04
2018-06-24T14:46:05.941Z,22.42
2018-06-24T14:48:34.488Z,22.80
2018-06-24T14:51:04.700Z,22.84
2018-06-24T14:53:33.287Z,22.93
2018-06-24T14:56:01.880Z,23.30
2018-06-24T14:58:30.402Z,22.71
2018-06-24T15:00:58.966Z,22.54
2018-06-24T15:03:27.513Z,22.36
2018-06-24T15:05:56.318Z,22.62
2018-06-24T15:08:28.701Z,22.76
2018-06-24T15:10:57.589Z,22.59
2018-06-24T15:13:26.334Z,22.56
2018-06-24T15:15:56.811Z,22.81
2018-06-24T15:18:26.253Z,22.61
2018-06-24T15:20:54.854Z,22.66
2018-06-24T15:23:23.370Z,22.56
2018-06-24T15:25:51.922Z,22.43
2018-06-24T15:28:20.689Z,22.68
2018-06-24T15:30:49.253Z,22.76
2018-06-24T15:33:17.785Z,22.59
2018-06-24T15:35:46.370Z,22.84
2018-06-24T15:38:14.909Z,22.62
2018-06-24T15:40:43.486Z,22.58
2018-06-24T15:43:12.014Z,22.59
2018-06-24T15:45:40.573Z,22.32
2018-06-24T15:48:09.161Z,22.75
2018-06-24T15:50:37.678Z,23.01
2018-06-24T15:53:06.535Z,22.64
2018-06-24T15:55:35.109Z,23.29
2018-06-24T15:58:03.680Z,23.11
2018-06-24T16:00:32.209Z,23.44
2018-06-24T16:03:00.753Z,23.41
2018-06-24T16:05:29.302Z,22.42
2018-06-24T16:07:57.860Z,22.63
2018-06-24T16:10:26.402Z,22.55
2018-06-24T16:12:54.976Z,22.43
2018-06-24T16:15:23.539Z,22.67
2018-06-24T16:17:52.096Z,22.56
2018-06-24T16:20:20.674Z,22.30
2018-06-24T16:22:49.222Z,22.55
2018-06-24T16:25:17.758Z,23.41
2018-06-24T16:27:46.323Z,22.83
2018-06-24T16:30:15.230Z,22.01
2018-06-24T16:32:43.809Z,22.40
2018-06-24T16:35:12.339Z,22.24
2018-06-24T16:37:40.854Z,22.20
2018-06-24T16:40:09.473Z,22.29
2018-06-24T16:42:38.076Z,22.04
2018-06-24T16:45:06.754Z,22.55
2018-06-24T16:47:35.329Z,22.20
2018-06-24T16:50:03.989Z,22.13
2018-06-24T16:52:32.555Z,21.80
2018-06-24T16:55:01.139Z,22.04
2018-06-24T16:57:29.693Z,22.17
2018-06-24T16:59:58.529Z,22.29
2018-06-24T17:02:27.070Z,22.24
2018-06-24T17:04:56.720Z,22.38
2018-06-24T17:07:25.319Z,22.43
2018-06-24T17:09:53.897Z,22.35
2018-06-24T17:12:22.450Z,22.39
2018-06-24T17:14:51.039Z,22.44
2018-06-24T17:17:19.573Z,22.05
2018-06-24T17:19:48.156Z,22.27
2018-06-24T17:22:16.680Z,22.26
2018-06-24T17:24:45.249Z,22.42
2018-06-24T17:27:13.780Z,22.27
2018-06-24T17:29:42.332Z,22.49
2018-06-24T17:32:10.861Z,22.48
2018-06-24T17:34:39.435Z,22.22
2018-06-24T17:37:08.618Z,22.31
2018-06-24T17:39:37.196Z,22.27
2018-06-24T17:42:05.749Z,22.09
2018-06-24T17:44:34.329Z,22.38
2018-06-24T17:47:02.866Z,22.43
2018-06-24T17:49:31.437Z,22.21
2018-06-24T17:51:59.968Z,21.80
2018-06-24T17:54:28.545Z,21.93
2018-06-24T17:56:57.787Z,22.11
2018-06-24T17:59:27.019Z,21.98
2018-06-24T18:01:55.646Z,22.09
2018-06-24T18:04:24.320Z,22.60
2018-06-24T18:06:52.849Z,22.34
2018-06-24T18:09:21.414Z,22.11
2018-06-24T18:11:49.941Z,22.04
2018-06-24T18:14:18.509Z,21.93
2018-06-24T18:16:47.036Z,22.09
2018-06-24T18:19:15.638Z,21.86
2018-06-24T18:21:44.202Z,21.79
2018-06-24T18:24:14.113Z,21.73
2018-06-24T18:26:42.668Z,21.77
2018-06-24T18:29:11.598Z,21.62
2018-06-24T18:31:41.092Z,21.57
2018-06-24T18:34:10.117Z,21.64
2018-06-24T18:36:38.662Z,21.70
2018-06-24T18:39:09.394Z,21.12
2018-06-24T18:41:38.279Z,21.30
2018-06-24T18:44:07.177Z,20.74
2018-06-24T18:46:36.140Z,20.81
2018-06-24T18:49:04.761Z,20.76
2018-06-24T18:51:33.322Z,20.73
2018-06-24T18:54:01.875Z,20.57
2018-06-24T18:56:30.649Z,20.56
2018-06-24T18:58:59.458Z,20.35
2018-06-24T19:01:28.025Z,20.17
2018-06-24T19:03:58.976Z,20.08
2018-06-24T19:06:29.310Z,20.05
2018-06-24T19:08:58.000Z,20.01
2018-06-24T19:11:27.237Z,19.89
2018-06-24T19:14:07.159Z,19.57
2018-06-24T19:16:35.725Z,19.34
2018-06-24T19:19:04.281Z,19.53
2018-06-24T19:21:32.851Z,19.34
2018-06-24T19:24:01.396Z,19.15
2018-06-24T19:26:29.956Z,19.08
2018-06-24T19:28:58.517Z,18.94
2018-06-24T19:31:27.346Z,18.89
2018-06-24T19:33:55.989Z,18.81
2018-06-24T19:36:24.869Z,18.69
2018-06-24T19:38:53.461Z,18.64
2018-06-24T19:41:22.274Z,18.55
2018-06-24T19:43:50.813Z,18.42
2018-06-24T19:46:19.414Z,18.28
2018-06-24T19:48:48.138Z,18.32
2018-06-24T19:51:16.727Z,18.23
2018-06-24T19:53:45.578Z,18.25
2018-06-24T19:56:18.537Z,18.14
2018-06-24T19:58:47.162Z,18.07
2018-06-24T20:01:15.728Z,17.91
2018-06-24T20:03:45.835Z,17.81
2018-06-24T20:06:15.153Z,17.85
2018-06-24T20:08:43.763Z,17.74
2018-06-24T20:11:13.949Z,17.71
2018-06-24T20:13:51.655Z,17.71
2018-06-24T20:16:24.155Z,17.63
2018-06-24T20:18:52.760Z,17.59
2018-06-24T20:21:21.309Z,17.59
2018-06-24T20:23:50.076Z,17.55
2018-06-24T20:26:19.189Z,17.46
2018-06-24T20:28:47.704Z,17.32
2018-06-24T20:31:16.254Z,17.39
2018-06-24T20:33:44.796Z,17.38
2018-06-24T20:36:13.315Z,17.37
2018-06-24T20:38:42.468Z,17.30
2018-06-24T20:41:13.737Z,17.27
2018-06-24T20:43:42.533Z,17.25
2018-06-24T20:46:11.500Z,17.23
2018-06-24T20:48:40.959Z,17.08
2018-06-24T20:51:13.365Z,17.10
2018-06-24T20:53:41.994Z,17.12
2018-06-24T20:56:10.539Z,16.99
2018-06-24T20:58:39.266Z,16.99
2018-06-24T21:01:07.801Z,16.95
2018-06-24T21:03:36.357Z,16.91
2018-06-24T21:06:04.954Z,16.95
2018-06-24T21:08:33.547Z,16.88
2018-06-24T21:11:02.110Z,16.71
2018-06-24T21:13:30.673Z,16.75
2018-06-24T21:15:59.208Z,16.73
2018-06-24T21:18:27.769Z,16.73
2018-06-24T21:20:56.299Z,16.69
2018-06-24T21:23:24.859Z,16.65
2018-06-24T21:25:53.397Z,16.71
2018-06-24T21:28:21.973Z,16.62
2018-06-24T21:30:50.516Z,16.56
2018-06-24T21:33:19.393Z,16.62
2018-06-24T21:35:47.906Z,16.56
2018-06-24T21:38:16.461Z,16.53
2018-06-24T21:40:45.141Z,16.50
2018-06-24T21:43:13.700Z,16.35
2018-06-24T21:45:42.257Z,16.23
2018-06-24T21:48:10.816Z,16.17
2018-06-24T21:50:39.332Z,16.11
2018-06-24T21:53:07.889Z,16.12
2018-06-24T21:55:36.415Z,15.99
2018-06-24T21:58:05.193Z,15.77
2018-06-24T22:00:33.747Z,15.92
2018-06-24T22:03:02.303Z,15.88
2018-06-24T22:05:30.905Z,15.79
2018-06-24T22:08:00.054Z,15.69
2018-06-24T22:10:28.582Z,15.68
2018-06-24T22:12:57.152Z,15.73
2018-06-24T22:15:25.681Z,15.73
2018-06-24T22:17:54.241Z,15.73
2018-06-24T22:20:22.776Z,15.79
2018-06-24T22:22:51.326Z,15.74
2018-06-24T22:25:20.004Z,15.70
2018-06-24T22:27:48.765Z,15.70
2018-06-24T22:30:17.312Z,15.61
2018-06-24T22:32:45.833Z,15.80
2018-06-24T22:35:14.396Z,15.82
2018-06-24T22:37:42.898Z,15.84
2018-06-24T22:40:11.460Z,15.73
2018-06-24T22:42:39.985Z,15.61
2018-06-24T22:45:08.534Z,15.29
2018-06-24T22:47:37.352Z,15.40
2018-06-24T22:50:06.210Z,15.34
2018-06-24T22:52:34.729Z,15.43
2018-06-24T22:55:03.298Z,15.61
2018-06-24T22:57:31.812Z,15.40
2018-06-24T23:00:08.050Z,15.52
2018-06-24T23:02:36.597Z,15.66
2018-06-24T23:05:05.228Z,15.51
2018-06-24T23:07:33.738Z,15.57
2018-06-24T23:10:02.569Z,15.83
2018-06-24T23:12:31.096Z,15.77
2018-06-24T23:15:00.309Z,15.79
2018-06-24T23:17:28.829Z,15.84
2018-06-24T23:19:57.397Z,15.73
2018-06-24T23:22:25.915Z,15.72
2018-06-24T23:24:54.450Z,15.77
2018-06-24T23:27:22.989Z,15.84
2018-06-24T23:29:51.864Z,15.66
2018-06-24T23:32:20.382Z,15.32
2018-06-24T23:34:48.934Z,15.34
2018-06-24T23:37:17.457Z,15.56
2018-06-24T23:39:46.027Z,15.61
2018-06-24T23:42:14.561Z,15.67
2018-06-24T23:44:43.361Z,15.75
2018-06-24T23:47:11.967Z,15.72
2018-06-24T23:49:40.563Z,15.61
2018-06-24T23:52:09.337Z,15.61
2018-06-24T23:54:37.894Z,15.57
2018-06-24T23:57:06.997Z,15.46
2018-06-24T23:59:36.024Z,15.58
